Time;durP1;ratioP1;P1;durP2;ratioP2;P2;SDS_P1;SDS_P2;PMS_P1;PMS_P2;Temp;Humidity;BMP_temperature;BMP_pressure;BME280_temperature;BME280_humidity;BME280_pressure;Samples;Min_cycle;Max_cycle;Signal;HPM_P1;HPM_P2
2023/12/23 00:01:23;;;;;;;15.35;1.77;;;5.90;99.90;;;;;;5036438;28;20057;-69
2023/12/23 00:03:48;;;;;;;17.35;2.33;;;6.00;99.90;;;;;;5036464;28;20030;-69
2023/12/23 00:06:14;;;;;;;13.07;2.30;;;6.00;99.90;;;;;;5036253;28;20061;-69
2023/12/23 00:08:39;;;;;;;10.77;2.58;;;6.00;99.90;;;;;;5036307;28;20090;-69
2023/12/23 00:11:06;;;;;;;20.00;2.33;;;6.10;99.90;;;;;;5035646;28;20088;-69
2023/12/23 00:13:31;;;;;;;10.55;2.47;;;6.10;99.90;;;;;;5035953;28;20184;-69
2023/12/23 00:15:57;;;;;;;9.68;2.10;;;6.30;99.90;;;;;;5036186;28;20108;-69
2023/12/23 00:18:22;;;;;;;9.45;1.95;;;6.30;99.90;;;;;;5036115;28;20026;-68
2023/12/23 00:20:48;;;;;;;15.40;3.22;;;6.30;99.90;;;;;;5036147;28;20033;-69
2023/12/23 00:23:13;;;;;;;12.60;2.03;;;6.40;99.90;;;;;;5036162;28;20390;-69
2023/12/23 00:25:39;;;;;;;15.70;1.90;;;6.30;99.90;;;;;;5036125;28;20037;-69
2023/12/23 00:28:06;;;;;;;13.35;2.58;;;6.50;99.90;;;;;;5035970;28;20025;-69
2023/12/23 00:30:32;;;;;;;6.28;2.08;;;6.40;99.90;;;;;;5035473;28;20021;-69
2023/12/23 00:32:57;;;;;;;13.07;2.00;;;6.50;99.90;;;;;;5035729;28;20030;-69
2023/12/23 00:35:23;;;;;;;9.88;2.10;;;6.50;99.90;;;;;;5035474;28;20036;-68
2023/12/23 00:37:49;;;;;;;12.82;2.13;;;6.50;99.90;;;;;;5035831;28;20029;-69
2023/12/23 00:40:15;;;;;;;13.80;1.70;;;6.40;99.90;;;;;;5035831;28;20088;-69
2023/12/23 00:42:40;;;;;;;12.23;2.22;;;6.50;99.90;;;;;;5035373;28;20021;-69
2023/12/23 00:45:06;;;;;;;9.77;2.03;;;6.40;99.90;;;;;;5035703;28;20029;-69
2023/12/23 00:47:33;;;;;;;14.50;1.98;;;6.60;99.90;;;;;;5035620;28;20029;-69
2023/12/23 00:49:58;;;;;;;11.02;2.40;;;6.50;99.90;;;;;;5035115;28;20029;-69
2023/12/23 00:52:24;;;;;;;10.55;1.90;;;6.50;99.90;;;;;;5035267;28;20079;-69
2023/12/23 00:54:49;;;;;;;18.27;2.33;;;6.60;99.90;;;;;;5035434;28;20036;-68
2023/12/23 00:57:15;;;;;;;8.07;1.52;;;6.50;99.90;;;;;;5035276;28;20084;-69
2023/12/23 00:59:40;;;;;;;11.18;1.45;;;6.50;99.90;;;;;;5035574;28;20033;-69
2023/12/23 01:02:06;;;;;;;9.77;2.10;;;6.50;99.90;;;;;;5035483;28;20040;-69
2023/12/23 01:04:31;;;;;;;12.35;1.65;;;6.50;99.90;;;;;;5034740;28;20188;-68
2023/12/23 01:06:57;;;;;;;13.48;1.95;;;6.50;99.90;;;;;;5035393;28;20029;-69
2023/12/23 01:09:22;;;;;;;12.25;2.03;;;6.40;99.90;;;;;;5034954;28;20491;-69
2023/12/23 01:11:48;;;;;;;8.95;1.60;;;6.40;99.90;;;;;;5034759;28;20060;-69
2023/12/23 01:14:14;;;;;;;11.13;2.10;;;6.40;99.90;;;;;;5035173;28;20031;-68
2023/12/23 01:16:39;;;;;;;11.90;2.05;;;6.40;99.90;;;;;;5034624;28;20116;-69
2023/12/23 01:19:05;;;;;;;12.85;2.00;;;6.40;99.90;;;;;;5035065;28;20029;-69
2023/12/23 01:21:30;;;;;;;7.88;1.50;;;6.60;99.90;;;;;;5035050;28;20068;-68
2023/12/23 01:23:56;;;;;;;9.27;1.98;;;6.50;99.90;;;;;;5034998;28;20037;-69
2023/12/23 01:26:21;;;;;;;9.02;1.92;;;6.60;99.90;;;;;;5034989;28;20033;-69
2023/12/23 01:28:47;;;;;;;14.82;2.10;;;6.70;99.90;;;;;;5035002;28;20030;-69
2023/12/23 01:31:13;;;;;;;9.00;2.08;;;6.60;99.90;;;;;;5034993;28;20034;-70
2023/12/23 01:33:38;;;;;;;13.68;1.73;;;6.60;99.90;;;;;;5034737;28;20394;-69
2023/12/23 01:36:05;;;;;;;11.27;1.90;;;6.60;99.90;;;;;;5034728;28;20018;-68
2023/12/23 01:38:33;;;;;;;9.80;1.70;;;6.60;99.90;;;;;;5034352;28;20025;-69
2023/12/23 01:40:58;;;;;;;8.85;1.48;;;6.60;99.90;;;;;;5034680;28;20500;-68
2023/12/23 01:43:24;;;;;;;13.75;2.10;;;6.70;99.90;;;;;;5034645;28;20029;-69
2023/12/23 01:45:52;;;;;;;18.10;2.28;;;6.80;99.90;;;;;;5034662;28;20029;-69
2023/12/23 01:48:22;;;;;;;10.43;1.77;;;6.90;99.90;;;;;;5034160;28;20025;-69
2023/12/23 01:50:48;;;;;;;9.90;2.53;;;6.80;99.90;;;;;;5034444;28;20029;-68
2023/12/23 01:53:13;;;;;;;7.57;1.48;;;6.70;99.90;;;;;;5033974;28;20035;-69
2023/12/23 01:55:39;;;;;;;14.10;2.17;;;6.80;99.90;;;;;;5034447;28;20030;-69
2023/12/23 01:58:04;;;;;;;9.63;2.13;;;6.70;99.90;;;;;;5034396;28;20033;-69
2023/12/23 02:00:30;;;;;;;7.40;1.35;;;6.80;99.90;;;;;;5034206;28;20029;-69
2023/12/23 02:02:56;;;;;;;10.00;1.60;;;6.70;99.90;;;;;;5034198;28;20030;-69
2023/12/23 02:05:22;;;;;;;7.75;1.55;;;6.70;99.90;;;;;;5033753;28;20025;-69
2023/12/23 02:07:49;;;;;;;9.75;2.05;;;6.70;99.90;;;;;;5034226;28;20029;-69
2023/12/23 02:10:15;;;;;;;9.07;1.92;;;6.70;99.90;;;;;;5033914;28;20519;-69
2023/12/23 02:13:08;;;;;;;10.80;1.65;;;6.70;99.90;;;;;;5034109;28;20167;-69
2023/12/23 02:15:36;;;;;;;10.57;1.80;;;6.80;99.90;;;;;;5033331;28;20030;-69
2023/12/23 02:18:02;;;;;;;13.43;1.80;;;6.70;99.90;;;;;;5033488;28;20160;-69
2023/12/23 02:20:28;;;;;;;12.48;2.42;;;6.70;99.90;;;;;;5033892;28;20040;-69
2023/12/23 02:22:54;;;;;;;14.00;1.95;;;6.70;99.90;;;;;;5033848;28;20384;-69
2023/12/23 02:25:22;;;;;;;8.52;1.60;;;6.60;99.90;;;;;;5033350;28;20025;-69
2023/12/23 02:27:53;;;;;;;9.75;2.25;;;6.60;99.90;;;;;;5033832;28;20372;-69
2023/12/23 02:30:21;;;;;;;10.02;2.20;;;6.60;99.90;;;;;;5033785;28;20029;-69
2023/12/23 02:32:48;;;;;;;12.10;1.83;;;6.60;99.90;;;;;;5033179;28;20075;-69
2023/12/23 02:35:13;;;;;;;13.65;2.10;;;6.60;99.90;;;;;;5033600;28;20033;-69
2023/12/23 02:37:40;;;;;;;7.60;1.73;;;6.60;99.90;;;;;;5033340;28;20028;-69
2023/12/23 02:40:06;;;;;;;9.13;2.10;;;6.60;99.90;;;;;;5033484;28;20493;-69
2023/12/23 02:42:32;;;;;;;14.55;1.92;;;6.70;99.90;;;;;;5033091;28;20021;-69
2023/12/23 02:44:57;;;;;;;12.07;2.53;;;6.60;99.90;;;;;;5033561;28;20116;-69
2023/12/23 02:47:23;;;;;;;13.82;2.00;;;6.70;99.90;;;;;;5033515;28;20132;-69
2023/12/23 02:49:48;;;;;;;15.32;2.47;;;6.70;99.90;;;;;;5033353;28;20554;-69
2023/12/23 02:52:14;;;;;;;5.78;1.58;;;6.70;99.90;;;;;;5033342;28;20109;-69
2023/12/23 02:54:40;;;;;;;7.30;1.35;;;6.70;99.90;;;;;;5033461;28;20033;-69
2023/12/23 02:57:05;;;;;;;12.90;2.05;;;6.70;99.90;;;;;;5033244;28;20076;-69
2023/12/23 02:59:31;;;;;;;14.38;1.60;;;6.70;99.90;;;;;;5033263;28;20569;-69
2023/12/23 03:01:56;;;;;;;10.32;1.60;;;6.70;99.90;;;;;;5033208;28;20022;-69
2023/12/23 03:04:22;;;;;;;15.00;1.60;;;6.80;99.90;;;;;;5033354;28;20036;-69
2023/12/23 03:06:47;;;;;;;8.90;1.20;;;6.80;99.90;;;;;;5032884;28;20022;-69
2023/12/23 03:09:13;;;;;;;8.68;1.33;;;6.80;99.90;;;;;;5033231;28;20018;-69
2023/12/23 03:11:39;;;;;;;19.98;2.30;;;6.90;99.90;;;;;;5032680;28;20056;-69
2023/12/23 03:14:05;;;;;;;14.43;1.90;;;6.80;99.90;;;;;;5032854;28;20038;-69
2023/12/23 03:16:34;;;;;;;9.30;1.60;;;6.80;99.90;;;;;;5032619;28;20541;-68
2023/12/23 03:19:02;;;;;;;8.90;1.55;;;6.80;99.90;;;;;;5033154;28;20116;-69
2023/12/23 03:21:27;;;;;;;13.90;2.08;;;6.80;99.90;;;;;;5033090;28;20108;-69
2023/12/23 03:23:53;;;;;;;7.95;1.60;;;6.70;99.90;;;;;;5033041;28;20120;-69
2023/12/23 03:26:18;;;;;;;16.42;2.08;;;6.60;99.90;;;;;;5033355;28;20124;-69
2023/12/23 03:28:44;;;;;;;11.88;2.38;;;6.50;99.90;;;;;;5037326;28;20033;-69
2023/12/23 03:31:09;;;;;;;9.43;1.90;;;6.60;99.90;;;;;;5037271;28;20052;-69
2023/12/23 03:33:35;;;;;;;13.43;3.08;;;6.50;99.90;;;;;;5036921;28;20025;-69
2023/12/23 03:36:01;;;;;;;12.23;2.75;;;6.50;99.90;;;;;;5037077;28;20032;-69
2023/12/23 03:38:26;;;;;;;10.77;3.15;;;6.50;99.90;;;;;;5037075;28;20024;-69
2023/12/23 03:40:52;;;;;;;13.52;2.42;;;6.50;99.90;;;;;;5036847;28;20018;-69
2023/12/23 03:43:18;;;;;;;12.63;2.25;;;6.40;99.90;;;;;;5036879;28;20159;-69
2023/12/23 03:45:43;;;;;;;15.27;2.40;;;6.40;99.90;;;;;;5037048;28;20120;-69
2023/12/23 03:48:09;;;;;;;11.70;1.92;;;6.40;99.90;;;;;;5036980;28;20431;-69
2023/12/23 03:50:34;;;;;;;9.43;2.55;;;6.50;99.90;;;;;;5036809;28;20368;-69
2023/12/23 03:53:00;;;;;;;11.20;2.03;;;6.40;99.90;;;;;;5036204;28;20391;-69
2023/12/23 03:55:31;;;;;;;18.40;3.10;;;6.40;99.90;;;;;;5036624;28;20029;-69
2023/12/23 03:57:57;;;;;;;9.57;2.30;;;6.40;99.90;;;;;;5036537;28;20497;-69
2023/12/23 04:00:22;;;;;;;22.77;3.22;;;6.40;99.90;;;;;;5036663;28;20108;-69
2023/12/23 04:02:48;;;;;;;11.63;2.63;;;6.40;99.90;;;;;;5036595;28;20029;-68
2023/12/23 04:05:15;;;;;;;22.50;3.40;;;6.40;99.90;;;;;;5036588;28;20030;-69
2023/12/23 04:07:41;;;;;;;11.80;3.15;;;6.50;99.90;;;;;;5036122;28;20075;-69
2023/12/23 04:10:06;;;;;;;17.67;3.63;;;6.40;99.90;;;;;;5035769;28;20499;-69
2023/12/23 04:12:32;;;;;;;17.25;3.28;;;6.40;99.90;;;;;;5036247;28;20033;-69
2023/12/23 04:14:57;;;;;;;19.15;4.10;;;6.40;99.90;;;;;;5036289;28;20032;-69
2023/12/23 04:17:23;;;;;;;21.50;4.97;;;6.40;99.90;;;;;;5035702;28;20116;-69
2023/12/23 04:19:50;;;;;;;15.43;4.88;;;6.40;99.90;;;;;;5036222;28;20121;-69
2023/12/23 04:22:16;;;;;;;19.02;5.50;;;6.40;99.90;;;;;;5036155;28;20036;-69
2023/12/23 04:24:41;;;;;;;18.80;5.25;;;6.50;99.90;;;;;;5036211;28;20391;-69
2023/12/23 04:27:07;;;;;;;16.48;5.93;;;6.50;99.90;;;;;;5035808;28;20383;-69
2023/12/23 04:29:32;;;;;;;26.30;6.65;;;6.50;99.90;;;;;;5036110;28;20026;-69
2023/12/23 04:31:58;;;;;;;17.05;6.07;;;6.50;99.90;;;;;;5036053;28;20044;-69
2023/12/23 04:34:23;;;;;;;22.02;7.60;;;6.60;99.90;;;;;;5035518;28;20022;-69
2023/12/23 04:36:49;;;;;;;20.10;8.50;;;6.60;99.90;;;;;;5036036;28;20026;-69
2023/12/23 04:39:15;;;;;;;17.15;8.52;;;6.50;99.90;;;;;;5035423;28;20041;-69
2023/12/23 04:41:46;;;;;;;20.90;8.85;;;6.50;99.90;;;;;;5035660;28;20024;-69
2023/12/23 04:44:13;;;;;;;27.10;9.35;;;6.50;99.90;;;;;;5036051;28;20040;-69
2023/12/23 04:46:39;;;;;;;27.52;9.73;;;6.50;99.90;;;;;;5035925;28;20029;-69
2023/12/23 04:49:05;;;;;;;16.70;9.15;;;6.60;99.90;;;;;;5035477;28;20360;-69
2023/12/23 04:51:30;;;;;;;23.85;10.27;;;6.70;99.90;;;;;;5035982;28;20037;-69
2023/12/23 04:53:56;;;;;;;31.38;13.43;;;6.60;99.90;;;;;;5035576;28;20036;-69
2023/12/23 04:56:22;;;;;;;33.53;16.30;;;6.80;99.90;;;;;;5035824;28;20094;-69
2023/12/23 04:58:48;;;;;;;34.30;16.02;;;6.70;99.90;;;;;;5035749;28;20064;-69
2023/12/23 05:01:14;;;;;;;35.53;17.52;;;6.70;99.90;;;;;;5035782;28;20025;-69
2023/12/23 05:03:40;;;;;;;46.80;19.60;;;6.70;99.90;;;;;;5035691;28;20037;-69
2023/12/23 05:06:06;;;;;;;44.83;20.80;;;6.80;99.90;;;;;;5035570;28;20459;-69
2023/12/23 05:08:32;;;;;;;42.78;21.08;;;7.00;99.90;;;;;;5035568;28;20064;-69
2023/12/23 05:10:58;;;;;;;36.95;21.08;;;6.90;99.90;;;;;;5035200;28;20049;-68
2023/12/23 05:13:24;;;;;;;47.88;23.23;;;7.00;99.90;;;;;;5035577;28;20479;-69
2023/12/23 05:15:50;;;;;;;45.80;21.75;;;7.20;99.90;;;;;;5035717;28;20029;-69
2023/12/23 05:18:16;;;;;;;38.63;19.90;;;7.10;99.90;;;;;;5035621;28;20112;-68
2023/12/23 05:20:41;;;;;;;33.92;16.25;;;7.20;99.90;;;;;;5035588;28;20025;-69
2023/12/23 05:23:07;;;;;;;31.08;14.63;;;7.50;99.90;;;;;;5035363;28;20030;-69
2023/12/23 05:25:33;;;;;;;21.00;12.82;;;7.60;99.90;;;;;;5035538;28;20033;-69
2023/12/23 05:27:58;;;;;;;20.42;12.18;;;7.70;99.90;;;;;;5035470;28;20041;-69
2023/12/23 05:30:24;;;;;;;26.00;11.02;;;7.80;99.90;;;;;;5035399;28;20498;-68
2023/12/23 05:32:49;;;;;;;22.40;10.18;;;7.90;99.90;;;;;;5034962;28;20029;-68
2023/12/23 05:35:15;;;;;;;22.52;10.32;;;8.00;99.90;;;;;;5035461;28;20018;-68
2023/12/23 05:37:41;;;;;;;21.05;9.65;;;8.00;99.90;;;;;;5035097;28;20040;-69
2023/12/23 05:40:07;;;;;;;22.38;9.70;;;8.20;99.90;;;;;;5034942;28;20037;-69
2023/12/23 05:42:33;;;;;;;18.92;10.07;;;;;;;;;;5034913;28;20112;-67
2023/12/23 05:44:58;;;;;;;15.82;8.57;;;8.30;99.90;;;;;;5034525;28;20053;-68
2023/12/23 05:47:24;;;;;;;24.35;8.45;;;8.30;99.90;;;;;;5034682;28;20364;-68
2023/12/23 05:49:49;;;;;;;22.20;8.50;;;8.20;99.90;;;;;;5033971;28;20438;-68
2023/12/23 05:52:15;;;;;;;23.00;7.80;;;8.40;99.90;;;;;;5033860;28;20029;-69
2023/12/23 05:54:40;;;;;;;20.55;7.50;;;8.40;99.90;;;;;;5034433;28;20107;-68
2023/12/23 05:57:06;;;;;;;19.67;7.18;;;8.40;99.90;;;;;;5034338;28;20036;-68
2023/12/23 05:59:32;;;;;;;18.55;7.63;;;8.40;99.90;;;;;;5034283;28;20032;-67
2023/12/23 06:01:58;;;;;;;23.88;8.05;;;8.40;99.90;;;;;;5034185;28;20475;-68
2023/12/23 06:04:23;;;;;;;23.52;8.98;;;8.40;99.90;;;;;;5034178;28;20364;-68
2023/12/23 06:06:49;;;;;;;21.67;6.90;;;8.40;99.90;;;;;;5034047;28;20035;-67
2023/12/23 06:09:14;;;;;;;14.77;7.32;;;8.50;99.90;;;;;;5034200;28;20025;-68
2023/12/23 06:11:40;;;;;;;11.55;5.80;;;8.50;99.90;;;;;;5033967;28;20045;-68
2023/12/23 06:14:05;;;;;;;13.45;6.70;;;8.50;99.90;;;;;;5034026;28;20076;-68
2023/12/23 06:16:31;;;;;;;18.67;7.13;;;8.50;99.90;;;;;;5034165;28;20037;-68
2023/12/23 06:18:57;;;;;;;14.90;6.55;;;8.60;99.90;;;;;;5034188;28;20056;-68
2023/12/23 06:21:22;;;;;;;15.23;6.22;;;8.60;99.90;;;;;;5034145;28;20033;-68
2023/12/23 06:23:48;;;;;;;18.20;7.13;;;8.70;99.90;;;;;;5033951;28;20036;-67
2023/12/23 06:26:13;;;;;;;20.10;6.35;;;8.60;99.90;;;;;;5033759;28;20037;-67
2023/12/23 06:28:39;;;;;;;11.65;6.25;;;8.60;99.90;;;;;;5033421;28;20345;-68
2023/12/23 06:31:04;;;;;;;13.30;6.28;;;8.60;99.90;;;;;;5033557;28;20048;-67
2023/12/23 06:33:30;;;;;;;21.10;6.63;;;8.60;99.90;;;;;;5033507;28;20543;-66
2023/12/23 06:35:56;;;;;;;18.33;7.38;;;;;;;;;;5033644;28;20045;-67
2023/12/23 06:38:21;;;;;;;14.32;6.60;;;8.90;99.90;;;;;;5033738;28;20029;-67
2023/12/23 06:40:47;;;;;;;16.92;6.10;;;8.60;99.90;;;;;;5033716;28;20033;-68
2023/12/23 06:43:12;;;;;;;20.45;6.57;;;8.70;99.90;;;;;;5033614;28;20033;-67
2023/12/23 06:45:38;;;;;;;16.60;7.20;;;8.70;99.90;;;;;;5033433;28;20034;-68
2023/12/23 06:48:04;;;;;;;17.23;6.90;;;8.70;99.90;;;;;;5033378;28;20037;-67
2023/12/23 06:50:29;;;;;;;10.90;5.95;;;8.70;99.90;;;;;;5033375;28;20037;-67
2023/12/23 06:52:55;;;;;;;17.13;6.25;;;8.70;99.90;;;;;;5033279;28;20025;-66
2023/12/23 06:55:20;;;;;;;16.92;6.25;;;8.70;99.90;;;;;;5032932;28;20364;-67
2023/12/23 06:57:46;;;;;;;13.75;6.07;;;8.70;99.90;;;;;;5033462;28;20068;-68
2023/12/23 07:00:12;;;;;;;9.73;5.43;;;8.70;99.90;;;;;;5033372;28;20104;-67
2023/12/23 07:02:39;;;;;;;17.92;6.57;;;8.60;99.90;;;;;;5032757;28;20479;-67
2023/12/23 07:05:05;;;;;;;19.30;6.63;;;8.70;99.90;;;;;;5033126;28;20053;-67
2023/12/23 07:07:30;;;;;;;17.02;5.47;;;8.80;99.90;;;;;;5033072;28;20044;-68
2023/12/23 07:09:58;;;;;;;16.20;6.68;;;8.70;99.90;;;;;;5032662;28;20486;-67
2023/12/23 07:12:25;;;;;;;18.85;6.40;;;;;;;;;;5032014;28;20096;-68
2023/12/23 07:14:51;;;;;;;14.52;5.78;;;8.70;99.90;;;;;;5033109;28;20057;-68
2023/12/23 07:17:16;;;;;;;16.05;5.95;;;8.70;99.90;;;;;;5033296;28;20514;-66
2023/12/23 07:19:42;;;;;;;14.32;6.00;;;8.80;99.90;;;;;;5033120;28;20414;-67
2023/12/23 07:22:07;;;;;;;19.60;6.10;;;8.70;99.90;;;;;;5033146;28;20057;-67
2023/12/23 07:24:33;;;;;;;16.13;6.53;;;8.80;99.90;;;;;;5032883;28;20044;-67
2023/12/23 07:26:59;;;;;;;13.93;5.32;;;8.70;99.90;;;;;;5032783;28;20506;-66
2023/12/23 07:29:25;;;;;;;15.18;6.00;;;8.70;99.90;;;;;;5033024;28;20057;-66
2023/12/23 07:31:50;;;;;;;19.10;6.57;;;8.80;99.90;;;;;;5032630;28;20128;-66
2023/12/23 07:34:16;;;;;;;16.70;6.18;;;8.70;99.90;;;;;;5032829;28;20037;-65
2023/12/23 07:36:41;;;;;;;20.45;6.47;;;8.80;99.90;;;;;;5032979;28;20025;-67
2023/12/23 07:39:07;;;;;;;17.08;5.97;;;8.80;99.90;;;;;;5032935;28;20106;-67
2023/12/23 07:41:32;;;;;;;15.57;5.40;;;8.80;99.90;;;;;;5032980;28;20076;-67
2023/12/23 07:43:58;;;;;;;14.15;5.40;;;8.80;99.90;;;;;;5032777;28;20485;-66
2023/12/23 07:46:24;;;;;;;15.57;5.13;;;8.80;99.90;;;;;;5032993;28;20101;-66
2023/12/23 07:48:49;;;;;;;13.80;5.05;;;8.90;99.90;;;;;;5032861;28;20037;-66
2023/12/23 07:51:15;;;;;;;11.95;5.10;;;8.90;99.90;;;;;;5032437;28;20044;-66
2023/12/23 07:53:40;;;;;;;17.23;4.93;;;8.80;99.90;;;;;;5032490;28;20029;-66
2023/12/23 07:56:07;;;;;;;17.40;5.55;;;8.80;99.90;;;;;;5032588;28;20479;-66
2023/12/23 07:58:33;;;;;;;11.27;4.82;;;8.90;99.90;;;;;;5031381;28;20017;-65
2023/12/23 08:00:58;;;;;;;24.42;6.72;;;8.90;99.90;;;;;;5032753;28;20036;-66
2023/12/23 08:03:24;;;;;;;13.88;5.38;;;8.90;99.90;;;;;;5032391;28;20029;-66
2023/12/23 08:05:49;;;;;;;15.63;5.43;;;8.90;99.90;;;;;;5032540;28;20064;-66
2023/12/23 08:08:15;;;;;;;15.80;5.43;;;8.80;99.90;;;;;;5032671;28;20090;-67
2023/12/23 08:10:40;;;;;;;19.35;6.05;;;8.80;99.90;;;;;;5032295;28;20593;-66
2023/12/23 08:13:07;;;;;;;12.02;5.43;;;8.80;99.90;;;;;;5032653;28;20296;-65
2023/12/23 08:15:32;;;;;;;12.20;5.90;;;8.90;99.90;;;;;;5036264;28;20467;-67
2023/12/23 08:17:58;;;;;;;15.23;5.57;;;8.90;99.90;;;;;;5036338;28;20029;-68
2023/12/23 08:20:24;;;;;;;10.55;5.38;;;;;;;;;;5036262;28;20045;-67
2023/12/23 08:22:50;;;;;;;19.80;6.15;;;8.80;99.90;;;;;;5036109;28;20029;-68
2023/12/23 08:25:15;;;;;;;14.15;5.72;;;8.90;99.90;;;;;;5036117;28;20428;-67
2023/12/23 08:27:41;;;;;;;22.30;6.10;;;8.90;99.90;;;;;;5036294;28;20033;-67
2023/12/23 08:30:07;;;;;;;14.25;5.55;;;9.20;99.90;;;;;;5036134;28;20041;-67
2023/12/23 08:32:34;;;;;;;15.45;6.07;;;;;;;;;;5035761;28;20365;-67
2023/12/23 08:35:01;;;;;;;18.17;6.25;;;;;;;;;;5035957;28;20014;-67
2023/12/23 08:37:29;;;;;;;12.30;5.38;;;9.00;99.90;;;;;;5035797;28;20369;-68
2023/12/23 08:39:57;;;;;;;19.05;6.07;;;9.30;99.90;;;;;;5035489;28;20419;-67
2023/12/23 08:42:24;;;;;;;18.38;5.78;;;9.60;99.90;;;;;;5035894;28;20483;-67
2023/12/23 08:44:52;;;;;;;14.65;5.15;;;8.80;99.90;;;;;;5035946;28;20124;-67
2023/12/23 08:47:20;;;;;;;14.10;5.03;;;8.70;99.90;;;;;;5035811;28;20391;-69
2023/12/23 08:49:45;;;;;;;14.00;5.45;;;9.00;99.90;;;;;;5035727;28;20033;-67
2023/12/23 08:52:13;;;;;;;12.38;5.07;;;;;;;;;;5035488;28;20026;-68
2023/12/23 08:54:39;;;;;;;11.18;5.00;;;9.20;99.90;;;;;;5035365;28;20040;-67
2023/12/23 08:57:06;;;;;;;16.92;5.43;;;9.00;99.90;;;;;;5035623;28;20022;-67
2023/12/23 08:59:34;;;;;;;13.65;4.90;;;;;;;;;;5035571;28;20026;-67
2023/12/23 09:02:02;;;;;;;11.38;5.63;;;;;;;;;;5035478;28;20364;-68
2023/12/23 09:04:29;;;;;;;13.23;4.43;;;;;;;;;;5035497;28;20120;-67
2023/12/23 09:06:55;;;;;;;16.42;5.65;;;8.70;99.90;;;;;;5035301;28;20449;-67
2023/12/23 09:09:21;;;;;;;14.95;5.38;;;9.10;99.90;;;;;;5035136;28;20029;-68
2023/12/23 09:11:47;;;;;;;16.88;5.43;;;;;;;;;;5035150;28;20439;-67
2023/12/23 09:14:14;;;;;;;12.60;5.45;;;9.00;99.90;;;;;;5035074;28;20448;-67
2023/12/23 09:16:43;;;;;;;21.83;6.20;;;;;;;;;;5035092;28;20053;-66
2023/12/23 09:19:09;;;;;;;17.75;6.80;;;;;;;;;;5035247;28;20147;-66
2023/12/23 09:21:35;;;;;;;18.83;7.00;;;;;;;;;;5034956;28;20025;-66
2023/12/23 09:24:00;;;;;;;19.10;7.38;;;9.10;99.90;;;;;;5034762;28;20030;-67
2023/12/23 09:26:26;;;;;;;14.50;6.90;;;9.10;99.90;;;;;;5034776;28;20033;-67
2023/12/23 09:28:52;;;;;;;21.73;6.18;;;9.10;99.90;;;;;;5035041;28;20032;-68
2023/12/23 09:31:18;;;;;;;15.73;6.00;;;9.10;99.90;;;;;;5034959;28;20029;-67
2023/12/23 09:33:44;;;;;;;13.98;5.57;;;;;;;;;;5034909;28;20036;-66
2023/12/23 09:36:10;;;;;;;14.82;5.68;;;9.10;99.90;;;;;;5034697;28;20032;-65
2023/12/23 09:38:36;;;;;;;19.73;7.18;;;9.10;99.90;;;;;;5033723;28;20021;-65
2023/12/23 09:41:02;;;;;;;14.55;5.78;;;9.10;99.90;;;;;;5034417;28;20023;-65
2023/12/23 09:43:28;;;;;;;19.85;6.60;;;9.10;99.90;;;;;;5034463;28;20035;-66
2023/12/23 09:45:56;;;;;;;16.20;6.10;;;9.30;99.90;;;;;;5034674;28;20037;-65
2023/12/23 09:48:22;;;;;;;15.70;6.25;;;9.30;99.90;;;;;;5034573;28;20037;-66
2023/12/23 09:50:48;;;;;;;16.92;5.65;;;9.50;99.90;;;;;;5034569;28;20029;-66
2023/12/23 09:53:14;;;;;;;14.80;6.25;;;9.30;99.90;;;;;;5034554;28;20480;-65
2023/12/23 09:55:40;;;;;;;19.02;6.57;;;9.30;99.90;;;;;;5034361;28;20036;-66
2023/12/23 09:58:06;;;;;;;19.92;5.90;;;;;;;;;;5034269;28;20430;-65
2023/12/23 10:00:33;;;;;;;18.35;5.57;;;;;;;;;;5034071;28;20022;-65
2023/12/23 10:02:59;;;;;;;16.45;5.05;;;9.10;99.90;;;;;;5034220;28;20112;-65
2023/12/23 10:05:27;;;;;;;15.52;5.60;;;9.10;99.90;;;;;;5034003;28;20044;-67
2023/12/23 10:07:57;;;;;;;18.15;5.05;;;;;;;;;;5033933;28;20048;-68
2023/12/23 10:10:23;;;;;;;14.77;5.43;;;9.10;99.90;;;;;;5033976;28;20470;-68
2023/12/23 10:12:49;;;;;;;11.30;4.28;;;9.10;99.90;;;;;;5033683;28;20030;-68
2023/12/23 10:15:14;;;;;;;15.40;4.63;;;9.10;99.90;;;;;;5033638;28;20078;-68
2023/12/23 10:17:40;;;;;;;18.15;4.70;;;9.10;99.90;;;;;;5033803;28;20028;-67
2023/12/23 10:20:06;;;;;;;19.13;4.65;;;9.10;99.90;;;;;;5034054;28;20036;-67
2023/12/23 10:22:32;;;;;;;16.30;4.60;;;9.10;99.90;;;;;;5034005;28;20025;-67
2023/12/23 10:25:00;;;;;;;16.45;4.70;;;;;;;;;;5033583;28;20171;-67
2023/12/23 10:27:27;;;;;;;12.00;4.07;;;;;;;;;;5033821;28;20022;-66
2023/12/23 10:29:53;;;;;;;14.93;5.10;;;;;;;;;;5033979;28;20105;-67
2023/12/23 10:32:27;;;;;;;16.95;5.18;;;;;;;;;;5033980;28;20029;-66
2023/12/23 10:34:57;;;;;;;25.40;5.38;;;;;;;;;;5033637;28;20037;-67
2023/12/23 10:37:24;;;;;;;17.25;6.00;;;;;;;;;;5033303;28;20140;-66
2023/12/23 10:39:54;;;;;;;16.40;4.95;;;;;;;;;;5033663;28;20021;-66
2023/12/23 10:42:23;;;;;;;23.02;5.90;;;;;;;;;;5033558;28;20112;-66
2023/12/23 10:44:49;;;;;;;19.55;5.18;;;;;;;;;;5033507;28;20026;-67
2023/12/23 10:47:15;;;;;;;22.67;5.50;;;;;;;;;;5033590;28;20121;-66
2023/12/23 10:49:44;;;;;;;13.52;4.85;;;;;;;;;;5033408;28;20104;-67
2023/12/23 10:52:13;;;;;;;16.05;5.32;;;9.20;99.90;;;;;;5033375;28;20043;-68
2023/12/23 10:54:39;;;;;;;16.10;4.40;;;9.30;99.90;;;;;;5033107;28;20034;-68
2023/12/23 10:57:08;;;;;;;13.65;4.85;;;9.20;99.90;;;;;;5033479;28;20041;-67
2023/12/23 10:59:35;;;;;;;14.68;4.43;;;9.20;99.90;;;;;;5033342;28;20025;-69
2023/12/23 11:02:04;;;;;;;19.90;5.13;;;;;;;;;;5033080;28;20022;-69
2023/12/23 11:04:32;;;;;;;12.65;5.15;;;;;;;;;;5033360;28;20383;-68
2023/12/23 11:07:01;;;;;;;14.95;4.50;;;9.20;99.90;;;;;;5033010;28;20387;-69
2023/12/23 11:09:29;;;;;;;16.02;4.60;;;;;;;;;;5033538;28;20507;-68
2023/12/23 11:11:57;;;;;;;15.65;4.25;;;9.10;99.90;;;;;;5033052;28;20049;-69
2023/12/23 11:14:24;;;;;;;15.55;4.35;;;;;;;;;;5033137;28;20546;-68
2023/12/23 11:16:52;;;;;;;16.08;4.85;;;;;;;;;;5033400;28;20072;-68
2023/12/23 11:19:19;;;;;;;11.82;4.25;;;9.10;99.90;;;;;;5032975;28;20383;-68
2023/12/23 11:21:45;;;;;;;15.85;4.55;;;9.10;99.90;;;;;;5033347;28;20041;-68
2023/12/23 11:24:33;;;;;;;10.27;4.75;;;;;;;;;;5032954;28;20087;-68
2023/12/23 11:27:00;;;;;;;15.68;4.50;;;;;;;;;;5033193;28;20039;-68
2023/12/23 11:29:27;;;;;;;12.65;4.75;;;;;;;;;;5033348;28;20037;-68
2023/12/23 11:32:12;;;;;;;9.68;4.22;;;;;;;;;;5033213;28;20076;-67
2023/12/23 11:34:41;;;;;;;8.95;4.47;;;;;;;;;;5032829;28;20454;-68
2023/12/23 11:37:07;;;;;;;15.35;5.05;;;;;;;;;;5033167;28;20029;-68
2023/12/23 11:39:36;;;;;;;8.95;4.45;;;;;;;;;;5033024;28;20430;-67
2023/12/23 11:42:02;;;;;;;10.38;4.38;;;9.00;99.90;;;;;;5033034;28;20108;-67
2023/12/23 11:44:28;;;;;;;17.30;4.80;;;9.10;99.90;;;;;;5033137;28;20029;-67
2023/12/23 11:46:55;;;;;;;13.63;4.60;;;;;;;;;;5032634;28;20036;-67
2023/12/23 11:49:22;;;;;;;11.23;4.63;;;;;;;;;;5036354;28;20076;-67
2023/12/23 11:51:48;;;;;;;9.30;4.00;;;;;;;;;;5036725;28;20069;-67
2023/12/23 11:54:14;;;;;;;13.95;4.70;;;;;;;;;;5036643;28;20065;-66
2023/12/23 11:56:41;;;;;;;9.73;4.35;;;9.10;99.90;;;;;;5036729;28;20491;-66
2023/12/23 11:59:07;;;;;;;13.32;4.60;;;;;;;;;;5036792;28;20451;-66
2023/12/23 12:01:33;;;;;;;10.70;5.35;;;9.20;99.90;;;;;;5036709;28;20068;-66
2023/12/23 12:03:59;;;;;;;20.65;5.65;;;;;;;;;;5035322;28;20452;-66
2023/12/23 12:06:25;;;;;;;16.20;5.55;;;9.00;99.90;;;;;;5036412;28;20021;-66
2023/12/23 12:08:50;;;;;;;14.05;5.35;;;9.10;99.90;;;;;;5036185;28;20380;-65
2023/12/23 12:11:17;;;;;;;12.30;4.97;;;9.10;99.90;;;;;;5036136;28;20073;-65
2023/12/23 12:13:45;;;;;;;12.70;5.28;;;9.00;99.90;;;;;;5035009;28;20034;-66
2023/12/23 12:16:10;;;;;;;12.27;5.28;;;9.10;99.90;;;;;;5036217;28;20072;-65
2023/12/23 12:18:36;;;;;;;10.90;5.10;;;9.00;99.90;;;;;;5036176;28;20034;-66
2023/12/23 12:21:02;;;;;;;16.27;5.68;;;9.10;99.90;;;;;;5036396;28;20022;-67
2023/12/23 12:23:27;;;;;;;13.93;5.03;;;9.10;99.90;;;;;;5036090;28;20038;-67
2023/12/23 12:25:56;;;;;;;14.57;5.60;;;9.10;99.90;;;;;;5036227;28;20034;-67
2023/12/23 12:28:23;;;;;;;14.90;5.43;;;9.00;99.90;;;;;;5035816;28;20115;-67
2023/12/23 12:30:49;;;;;;;15.40;5.57;;;;;;;;;;5036290;28;20484;-66
2023/12/23 12:33:15;;;;;;;15.18;6.82;;;9.00;99.90;;;;;;5035945;28;20084;-66
2023/12/23 12:35:41;;;;;;;15.55;6.15;;;9.00;99.90;;;;;;5035660;28;20116;-66
2023/12/23 12:38:08;;;;;;;16.08;5.80;;;9.00;99.90;;;;;;5035986;28;20027;-66
2023/12/23 12:40:35;;;;;;;14.18;5.75;;;9.10;99.90;;;;;;5035754;28;20478;-66
2023/12/23 12:43:05;;;;;;;16.80;6.05;;;9.10;99.90;;;;;;5034669;28;20026;-66
2023/12/23 12:45:37;;;;;;;13.13;5.95;;;9.10;99.90;;;;;;5035787;28;20026;-66
2023/12/23 12:48:07;;;;;;;14.18;6.30;;;9.10;99.90;;;;;;5035866;28;20151;-66
2023/12/23 12:50:33;;;;;;;20.27;6.30;;;9.10;99.90;;;;;;5035844;28;20116;-65
2023/12/23 12:53:01;;;;;;;10.52;5.28;;;9.10;99.90;;;;;;5035698;28;20104;-65
2023/12/23 12:55:27;;;;;;;16.70;6.22;;;9.10;99.90;;;;;;5035515;28;20025;-65